sensor_id;sensor_type;location;lat;lon;timestamp;temperature;humidity
33717;DHT22;20046;50.746;7.072;2023-03-29T00:02:21;6.10;99.90
33717;DHT22;20046;50.746;7.072;2023-03-29T00:04:57;6.10;99.90
33717;DHT22;20046;50.746;7.072;2023-03-29T00:07:27;6.10;99.90
33717;DHT22;20046;50.746;7.072;2023-03-29T00:09:54;6.10;99.90
33717;DHT22;20046;50.746;7.072;2023-03-29T00:12:20;6.10;99.90
33717;DHT22;20046;50.746;7.072;2023-03-29T00:14:46;6.20;99.90
33717;DHT22;20046;50.746;7.072;2023-03-29T00:17:11;6.20;99.90
33717;DHT22;20046;50.746;7.072;2023-03-29T00:19:37;6.10;99.90
33717;DHT22;20046;50.746;7.072;2023-03-29T00:22:03;6.10;99.90
33717;DHT22;20046;50.746;7.072;2023-03-29T00:24:30;6.10;99.90
33717;DHT22;20046;50.746;7.072;2023-03-29T00:26:55;6.10;99.90
33717;DHT22;20046;50.746;7.072;2023-03-29T00:29:21;6.10;99.90
33717;DHT22;20046;50.746;7.072;2023-03-29T00:31:46;6.10;99.90
33717;DHT22;20046;50.746;7.072;2023-03-29T00:34:21;6.10;99.90
33717;DHT22;20046;50.746;7.072;2023-03-29T00:36:47;6.10;99.90
33717;DHT22;20046;50.746;7.072;2023-03-29T00:39:20;6.10;99.90
33717;DHT22;20046;50.746;7.072;2023-03-29T00:41:45;6.10;99.90
33717;DHT22;20046;50.746;7.072;2023-03-29T00:46:55;6.20;99.90
33717;DHT22;20046;50.746;7.072;2023-03-29T00:49:21;6.20;99.90
33717;DHT22;20046;50.746;7.072;2023-03-29T00:51:47;6.20;99.90
33717;DHT22;20046;50.746;7.072;2023-03-29T00:54:13;6.30;99.90
33717;DHT22;20046;50.746;7.072;2023-03-29T00:56:43;6.30;99.90
33717;DHT22;20046;50.746;7.072;2023-03-29T00:59:15;6.30;99.90
33717;DHT22;20046;50.746;7.072;2023-03-29T01:01:52;6.30;99.90
33717;DHT22;20046;50.746;7.072;2023-03-29T01:04:21;6.30;99.90
33717;DHT22;20046;50.746;7.072;2023-03-29T01:09:25;6.30;99.90
33717;DHT22;20046;50.746;7.072;2023-03-29T01:11:54;6.30;99.90
33717;DHT22;20046;50.746;7.072;2023-03-29T01:14:22;6.30;99.90
33717;DHT22;20046;50.746;7.072;2023-03-29T01:16:49;6.30;99.90
33717;DHT22;20046;50.746;7.072;2023-03-29T01:19:15;6.30;99.90
33717;DHT22;20046;50.746;7.072;2023-03-29T01:21:43;6.30;99.90
33717;DHT22;20046;50.746;7.072;2023-03-29T01:29:06;6.30;99.90
33717;DHT22;20046;50.746;7.072;2023-03-29T01:31:44;6.30;99.90
33717;DHT22;20046;50.746;7.072;2023-03-29T01:34:32;6.30;99.90
33717;DHT22;20046;50.746;7.072;2023-03-29T01:39:29;6.30;99.90
33717;DHT22;20046;50.746;7.072;2023-03-29T01:42:15;6.30;99.90
33717;DHT22;20046;50.746;7.072;2023-03-29T01:44:46;6.30;99.90
33717;DHT22;20046;50.746;7.072;2023-03-29T01:47:18;6.30;99.90
33717;DHT22;20046;50.746;7.072;2023-03-29T01:49:58;6.40;99.90
33717;DHT22;20046;50.746;7.072;2023-03-29T01:52:31;6.40;99.90
33717;DHT22;20046;50.746;7.072;2023-03-29T01:55:03;6.40;99.90
33717;DHT22;20046;50.746;7.072;2023-03-29T01:57:29;6.40;99.90
33717;DHT22;20046;50.746;7.072;2023-03-29T01:59:57;6.40;99.90
33717;DHT22;20046;50.746;7.072;2023-03-29T02:02:23;6.40;99.90
33717;DHT22;20046;50.746;7.072;2023-03-29T02:04:52;6.40;99.90
33717;DHT22;20046;50.746;7.072;2023-03-29T02:07:20;6.40;99.90
33717;DHT22;20046;50.746;7.072;2023-03-29T02:09:46;6.50;99.90
33717;DHT22;20046;50.746;7.072;2023-03-29T02:12:13;6.60;99.90
33717;DHT22;20046;50.746;7.072;2023-03-29T02:14:39;6.60;99.90
33717;DHT22;20046;50.746;7.072;2023-03-29T02:17:13;6.60;99.90
33717;DHT22;20046;50.746;7.072;2023-03-29T02:19:39;6.60;99.90
33717;DHT22;20046;50.746;7.072;2023-03-29T02:22:06;6.60;99.90
33717;DHT22;20046;50.746;7.072;2023-03-29T02:24:33;6.60;99.90
33717;DHT22;20046;50.746;7.072;2023-03-29T02:27:01;6.60;99.90
33717;DHT22;20046;50.746;7.072;2023-03-29T02:29:26;6.60;99.90
33717;DHT22;20046;50.746;7.072;2023-03-29T02:31:54;6.60;99.90
33717;DHT22;20046;50.746;7.072;2023-03-29T02:36:49;6.60;99.90
33717;DHT22;20046;50.746;7.072;2023-03-29T02:39:16;6.50;99.90
33717;DHT22;20046;50.746;7.072;2023-03-29T02:41:43;6.60;99.90
33717;DHT22;20046;50.746;7.072;2023-03-29T02:44:09;6.60;99.90
33717;DHT22;20046;50.746;7.072;2023-03-29T02:46:38;6.60;99.90
33717;DHT22;20046;50.746;7.072;2023-03-29T02:49:07;6.60;99.90
33717;DHT22;20046;50.746;7.072;2023-03-29T02:51:34;6.60;99.90
33717;DHT22;20046;50.746;7.072;2023-03-29T02:54:05;6.60;99.90
33717;DHT22;20046;50.746;7.072;2023-03-29T02:56:45;6.60;99.90
33717;DHT22;20046;50.746;7.072;2023-03-29T02:59:11;6.60;99.90
33717;DHT22;20046;50.746;7.072;2023-03-29T03:01:38;6.60;99.90
33717;DHT22;20046;50.746;7.072;2023-03-29T03:04:04;6.60;99.90
33717;DHT22;20046;50.746;7.072;2023-03-29T03:06:29;6.70;99.90
33717;DHT22;20046;50.746;7.072;2023-03-29T03:08:54;6.70;99.90
33717;DHT22;20046;50.746;7.072;2023-03-29T03:11:20;6.70;99.90
33717;DHT22;20046;50.746;7.072;2023-03-29T03:13:46;6.70;99.90
33717;DHT22;20046;50.746;7.072;2023-03-29T03:16:12;6.70;99.90
33717;DHT22;20046;50.746;7.072;2023-03-29T03:18:37;6.80;99.90
33717;DHT22;20046;50.746;7.072;2023-03-29T03:21:03;6.90;99.90
33717;DHT22;20046;50.746;7.072;2023-03-29T03:23:29;6.90;99.90
33717;DHT22;20046;50.746;7.072;2023-03-29T03:25:55;6.90;99.90
33717;DHT22;20046;50.746;7.072;2023-03-29T03:28:21;7.00;99.90
33717;DHT22;20046;50.746;7.072;2023-03-29T03:30:47;7.10;99.90
33717;DHT22;20046;50.746;7.072;2023-03-29T03:33:13;7.10;99.90
33717;DHT22;20046;50.746;7.072;2023-03-29T03:35:39;7.10;99.90
33717;DHT22;20046;50.746;7.072;2023-03-29T03:38:04;7.10;99.90
33717;DHT22;20046;50.746;7.072;2023-03-29T03:40:30;7.10;99.90
33717;DHT22;20046;50.746;7.072;2023-03-29T03:42:56;7.20;99.90
33717;DHT22;20046;50.746;7.072;2023-03-29T03:45:22;7.20;99.90
33717;DHT22;20046;50.746;7.072;2023-03-29T03:47:48;7.20;99.90
33717;DHT22;20046;50.746;7.072;2023-03-29T03:50:14;7.20;99.90
33717;DHT22;20046;50.746;7.072;2023-03-29T03:52:39;7.20;99.90
33717;DHT22;20046;50.746;7.072;2023-03-29T03:55:05;7.20;99.90
33717;DHT22;20046;50.746;7.072;2023-03-29T03:57:30;7.20;99.90
33717;DHT22;20046;50.746;7.072;2023-03-29T03:59:57;7.10;99.90
33717;DHT22;20046;50.746;7.072;2023-03-29T04:02:23;7.20;99.90
33717;DHT22;20046;50.746;7.072;2023-03-29T04:04:48;7.20;99.90
33717;DHT22;20046;50.746;7.072;2023-03-29T04:07:14;7.10;99.90
33717;DHT22;20046;50.746;7.072;2023-03-29T04:09:42;7.10;99.90
33717;DHT22;20046;50.746;7.072;2023-03-29T04:12:08;7.10;99.90
33717;DHT22;20046;50.746;7.072;2023-03-29T04:14:34;7.10;99.90
33717;DHT22;20046;50.746;7.072;2023-03-29T04:16:59;7.10;99.90
33717;DHT22;20046;50.746;7.072;2023-03-29T04:19:25;7.10;99.90
33717;DHT22;20046;50.746;7.072;2023-03-29T04:21:51;7.10;99.90
33717;DHT22;20046;50.746;7.072;2023-03-29T04:24:17;7.10;99.90
33717;DHT22;20046;50.746;7.072;2023-03-29T04:26:42;7.10;99.90
33717;DHT22;20046;50.746;7.072;2023-03-29T04:29:08;7.10;99.90
33717;DHT22;20046;50.746;7.072;2023-03-29T04:31:33;7.10;99.90
33717;DHT22;20046;50.746;7.072;2023-03-29T04:33:59;7.10;99.90
33717;DHT22;20046;50.746;7.072;2023-03-29T04:36:24;7.10;99.90
33717;DHT22;20046;50.746;7.072;2023-03-29T04:38:50;7.20;99.90
33717;DHT22;20046;50.746;7.072;2023-03-29T04:41:18;7.20;99.90
33717;DHT22;20046;50.746;7.072;2023-03-29T04:43:44;7.20;99.90
33717;DHT22;20046;50.746;7.072;2023-03-29T04:46:13;7.20;99.90
33717;DHT22;20046;50.746;7.072;2023-03-29T04:48:39;7.20;99.90
33717;DHT22;20046;50.746;7.072;2023-03-29T04:51:04;7.20;99.90
33717;DHT22;20046;50.746;7.072;2023-03-29T04:53:30;7.30;99.90
33717;DHT22;20046;50.746;7.072;2023-03-29T04:55:56;7.30;99.90
33717;DHT22;20046;50.746;7.072;2023-03-29T04:58:24;7.30;99.90
33717;DHT22;20046;50.746;7.072;2023-03-29T05:00:49;7.30;99.90
33717;DHT22;20046;50.746;7.072;2023-03-29T05:03:15;7.40;99.90
33717;DHT22;20046;50.746;7.072;2023-03-29T05:05:41;7.30;99.90
33717;DHT22;20046;50.746;7.072;2023-03-29T05:08:07;7.30;99.90
33717;DHT22;20046;50.746;7.072;2023-03-29T05:10:36;7.30;99.90
33717;DHT22;20046;50.746;7.072;2023-03-29T05:13:02;7.30;99.90
33717;DHT22;20046;50.746;7.072;2023-03-29T05:15:28;7.30;99.90
33717;DHT22;20046;50.746;7.072;2023-03-29T05:17:54;7.40;99.90
33717;DHT22;20046;50.746;7.072;2023-03-29T05:20:19;7.40;99.90
33717;DHT22;20046;50.746;7.072;2023-03-29T05:22:46;7.40;99.90
33717;DHT22;20046;50.746;7.072;2023-03-29T05:25:12;7.40;99.90
33717;DHT22;20046;50.746;7.072;2023-03-29T05:27:38;7.40;99.90
33717;DHT22;20046;50.746;7.072;2023-03-29T05:30:04;7.40;99.90
33717;DHT22;20046;50.746;7.072;2023-03-29T05:32:29;7.40;99.90
33717;DHT22;20046;50.746;7.072;2023-03-29T05:34:55;7.40;99.90
33717;DHT22;20046;50.746;7.072;2023-03-29T05:37:21;7.40;99.90
33717;DHT22;20046;50.746;7.072;2023-03-29T05:39:46;7.40;99.90
33717;DHT22;20046;50.746;7.072;2023-03-29T05:42:13;7.40;99.90
33717;DHT22;20046;50.746;7.072;2023-03-29T05:44:39;7.40;99.90
33717;DHT22;20046;50.746;7.072;2023-03-29T05:47:05;7.40;99.90
33717;DHT22;20046;50.746;7.072;2023-03-29T05:49:31;7.50;99.90
33717;DHT22;20046;50.746;7.072;2023-03-29T05:51:57;7.50;99.90
33717;DHT22;20046;50.746;7.072;2023-03-29T05:54:23;7.50;99.90
33717;DHT22;20046;50.746;7.072;2023-03-29T05:56:49;7.50;99.90
33717;DHT22;20046;50.746;7.072;2023-03-29T05:59:14;7.50;99.90
33717;DHT22;20046;50.746;7.072;2023-03-29T06:01:41;7.50;99.90
33717;DHT22;20046;50.746;7.072;2023-03-29T06:04:09;7.60;99.90
33717;DHT22;20046;50.746;7.072;2023-03-29T06:06:36;7.60;99.90
33717;DHT22;20046;50.746;7.072;2023-03-29T06:09:02;7.60;99.90
33717;DHT22;20046;50.746;7.072;2023-03-29T06:11:28;7.60;99.90
33717;DHT22;20046;50.746;7.072;2023-03-29T06:13:53;7.70;99.90
33717;DHT22;20046;50.746;7.072;2023-03-29T06:16:19;7.70;99.90
33717;DHT22;20046;50.746;7.072;2023-03-29T06:18:44;7.70;99.90
33717;DHT22;20046;50.746;7.072;2023-03-29T06:21:10;7.80;99.90
33717;DHT22;20046;50.746;7.072;2023-03-29T06:23:36;7.80;99.90
33717;DHT22;20046;50.746;7.072;2023-03-29T06:26:02;7.80;99.90
33717;DHT22;20046;50.746;7.072;2023-03-29T06:28:27;7.90;99.90
33717;DHT22;20046;50.746;7.072;2023-03-29T06:30:53;7.90;99.90
33717;DHT22;20046;50.746;7.072;2023-03-29T06:33:21;8.00;99.90
33717;DHT22;20046;50.746;7.072;2023-03-29T06:35:47;8.00;99.90
33717;DHT22;20046;50.746;7.072;2023-03-29T06:38:13;8.10;99.90
33717;DHT22;20046;50.746;7.072;2023-03-29T06:40:39;8.20;99.90
33717;DHT22;20046;50.746;7.072;2023-03-29T06:43:05;8.10;99.90
33717;DHT22;20046;50.746;7.072;2023-03-29T06:45:32;8.20;99.90
33717;DHT22;20046;50.746;7.072;2023-03-29T06:47:57;8.30;99.90
33717;DHT22;20046;50.746;7.072;2023-03-29T06:50:23;8.30;99.90
33717;DHT22;20046;50.746;7.072;2023-03-29T06:52:49;8.40;99.90
33717;DHT22;20046;50.746;7.072;2023-03-29T06:55:15;8.50;99.90
33717;DHT22;20046;50.746;7.072;2023-03-29T06:57:41;8.60;99.90
33717;DHT22;20046;50.746;7.072;2023-03-29T07:00:07;8.60;99.90
33717;DHT22;20046;50.746;7.072;2023-03-29T07:02:46;8.70;99.90
33717;DHT22;20046;50.746;7.072;2023-03-29T07:05:13;8.70;99.90
33717;DHT22;20046;50.746;7.072;2023-03-29T07:07:41;8.70;99.90
33717;DHT22;20046;50.746;7.072;2023-03-29T07:10:22;8.80;99.90
33717;DHT22;20046;50.746;7.072;2023-03-29T07:12:48;8.80;99.90
33717;DHT22;20046;50.746;7.072;2023-03-29T07:15:13;8.80;99.90
33717;DHT22;20046;50.746;7.072;2023-03-29T07:17:39;8.80;99.90
33717;DHT22;20046;50.746;7.072;2023-03-29T07:20:05;8.80;99.90
33717;DHT22;20046;50.746;7.072;2023-03-29T07:22:41;8.90;99.90
33717;DHT22;20046;50.746;7.072;2023-03-29T07:25:08;8.90;99.90
33717;DHT22;20046;50.746;7.072;2023-03-29T07:27:34;9.00;99.90
33717;DHT22;20046;50.746;7.072;2023-03-29T07:30:00;9.10;99.90
33717;DHT22;20046;50.746;7.072;2023-03-29T07:32:25;9.10;99.90
33717;DHT22;20046;50.746;7.072;2023-03-29T07:34:52;9.20;99.90
33717;DHT22;20046;50.746;7.072;2023-03-29T07:37:17;9.20;99.90
33717;DHT22;20046;50.746;7.072;2023-03-29T07:39:43;9.30;99.90
33717;DHT22;20046;50.746;7.072;2023-03-29T07:42:08;9.30;99.90
33717;DHT22;20046;50.746;7.072;2023-03-29T07:44:34;9.40;99.90
33717;DHT22;20046;50.746;7.072;2023-03-29T07:47:02;9.50;99.90
33717;DHT22;20046;50.746;7.072;2023-03-29T07:49:29;9.70;99.90
33717;DHT22;20046;50.746;7.072;2023-03-29T07:51:55;9.80;99.90
33717;DHT22;20046;50.746;7.072;2023-03-29T07:54:21;9.90;99.90
33717;DHT22;20046;50.746;7.072;2023-03-29T07:56:46;10.10;99.90
33717;DHT22;20046;50.746;7.072;2023-03-29T07:59:12;10.20;99.90
33717;DHT22;20046;50.746;7.072;2023-03-29T08:01:37;10.50;99.90
33717;DHT22;20046;50.746;7.072;2023-03-29T08:04:05;10.60;99.90
33717;DHT22;20046;50.746;7.072;2023-03-29T08:06:31;10.70;99.90
33717;DHT22;20046;50.746;7.072;2023-03-29T08:08:56;10.80;99.90
33717;DHT22;20046;50.746;7.072;2023-03-29T08:11:22;11.10;99.90
33717;DHT22;20046;50.746;7.072;2023-03-29T08:13:49;11.30;99.90
33717;DHT22;20046;50.746;7.072;2023-03-29T08:16:15;11.30;99.90
33717;DHT22;20046;50.746;7.072;2023-03-29T08:18:41;11.50;99.90
33717;DHT22;20046;50.746;7.072;2023-03-29T08:21:07;11.70;99.90
33717;DHT22;20046;50.746;7.072;2023-03-29T08:23:32;11.90;99.90
33717;DHT22;20046;50.746;7.072;2023-03-29T08:25:58;11.80;99.90
33717;DHT22;20046;50.746;7.072;2023-03-29T08:28:23;11.80;99.90
33717;DHT22;20046;50.746;7.072;2023-03-29T08:30:49;11.90;99.90
33717;DHT22;20046;50.746;7.072;2023-03-29T08:33:14;12.00;99.90
33717;DHT22;20046;50.746;7.072;2023-03-29T08:35:40;12.00;99.90
33717;DHT22;20046;50.746;7.072;2023-03-29T08:38:05;12.00;99.90
33717;DHT22;20046;50.746;7.072;2023-03-29T08:40:31;11.90;99.90
33717;DHT22;20046;50.746;7.072;2023-03-29T08:50:32;12.20;99.90
33717;DHT22;20046;50.746;7.072;2023-03-29T08:53:04;12.20;99.90
33717;DHT22;20046;50.746;7.072;2023-03-29T08:55:37;12.20;99.90
33717;DHT22;20046;50.746;7.072;2023-03-29T08:58:04;12.10;99.90
33717;DHT22;20046;50.746;7.072;2023-03-29T09:02:57;12.10;99.90
33717;DHT22;20046;50.746;7.072;2023-03-29T09:07:49;12.10;99.90
33717;DHT22;20046;50.746;7.072;2023-03-29T09:10:16;12.10;99.90
33717;DHT22;20046;50.746;7.072;2023-03-29T09:17:54;12.20;99.90
33717;DHT22;20046;50.746;7.072;2023-03-29T09:20:31;12.20;99.90
33717;DHT22;20046;50.746;7.072;2023-03-29T09:23:11;12.20;99.90
33717;DHT22;20046;50.746;7.072;2023-03-29T09:31:07;12.40;99.90
33717;DHT22;20046;50.746;7.072;2023-03-29T09:33:39;12.50;99.90
33717;DHT22;20046;50.746;7.072;2023-03-29T09:36:29;12.50;99.90
33717;DHT22;20046;50.746;7.072;2023-03-29T09:38:55;12.50;99.90
33717;DHT22;20046;50.746;7.072;2023-03-29T09:41:23;12.70;99.90
33717;DHT22;20046;50.746;7.072;2023-03-29T09:43:51;12.90;99.90
33717;DHT22;20046;50.746;7.072;2023-03-29T09:46:24;12.90;99.90
33717;DHT22;20046;50.746;7.072;2023-03-29T09:48:50;12.90;99.90
33717;DHT22;20046;50.746;7.072;2023-03-29T09:51:18;13.00;99.90
33717;DHT22;20046;50.746;7.072;2023-03-29T09:53:45;13.10;99.90
33717;DHT22;20046;50.746;7.072;2023-03-29T09:56:11;13.20;99.90
33717;DHT22;20046;50.746;7.072;2023-03-29T09:58:41;13.20;99.90
33717;DHT22;20046;50.746;7.072;2023-03-29T10:01:07;13.40;99.90
33717;DHT22;20046;50.746;7.072;2023-03-29T10:03:36;13.50;99.90
33717;DHT22;20046;50.746;7.072;2023-03-29T10:06:05;13.60;99.90
33717;DHT22;20046;50.746;7.072;2023-03-29T10:08:35;13.80;99.90
33717;DHT22;20046;50.746;7.072;2023-03-29T10:11:20;13.90;99.90
33717;DHT22;20046;50.746;7.072;2023-03-29T10:13:48;13.80;99.90
33717;DHT22;20046;50.746;7.072;2023-03-29T10:16:17;13.60;99.90
33717;DHT22;20046;50.746;7.072;2023-03-29T10:18:43;13.50;99.90
33717;DHT22;20046;50.746;7.072;2023-03-29T10:21:10;13.30;99.90
33717;DHT22;20046;50.746;7.072;2023-03-29T10:23:36;13.10;99.90
33717;DHT22;20046;50.746;7.072;2023-03-29T10:26:05;13.00;99.90
33717;DHT22;20046;50.746;7.072;2023-03-29T10:28:32;12.90;99.90
33717;DHT22;20046;50.746;7.072;2023-03-29T10:30:59;12.90;99.90
33717;DHT22;20046;50.746;7.072;2023-03-29T10:33:29;13.10;99.90
33717;DHT22;20046;50.746;7.072;2023-03-29T10:35:55;13.20;99.90
33717;DHT22;20046;50.746;7.072;2023-03-29T10:38:22;13.40;99.90
33717;DHT22;20046;50.746;7.072;2023-03-29T10:40:49;13.50;99.90
33717;DHT22;20046;50.746;7.072;2023-03-29T10:45:41;13.90;99.90
33717;DHT22;20046;50.746;7.072;2023-03-29T10:48:14;14.20;99.90
33717;DHT22;20046;50.746;7.072;2023-03-29T10:50:40;14.50;99.90
33717;DHT22;20046;50.746;7.072;2023-03-29T10:53:18;14.70;99.90
33717;DHT22;20046;50.746;7.072;2023-03-29T10:55:47;14.90;99.90
33717;DHT22;20046;50.746;7.072;2023-03-29T11:00:45;15.30;99.90
33717;DHT22;20046;50.746;7.072;2023-03-29T11:05:40;15.10;99.90
33717;DHT22;20046;50.746;7.072;2023-03-29T11:08:16;15.00;99.90
33717;DHT22;20046;50.746;7.072;2023-03-29T11:10:57;14.90;99.90
33717;DHT22;20046;50.746;7.072;2023-03-29T11:13:31;15.00;99.90
33717;DHT22;20046;50.746;7.072;2023-03-29T11:26:19;15.30;99.90
33717;DHT22;20046;50.746;7.072;2023-03-29T11:38:50;15.50;99.90
33717;DHT22;20046;50.746;7.072;2023-03-29T11:41:26;15.70;99.90
33717;DHT22;20046;50.746;7.072;2023-03-29T11:46:27;15.80;99.90
33717;DHT22;20046;50.746;7.072;2023-03-29T11:49:14;15.80;99.90
33717;DHT22;20046;50.746;7.072;2023-03-29T11:51:42;15.90;99.90
33717;DHT22;20046;50.746;7.072;2023-03-29T11:56:47;16.00;99.90
33717;DHT22;20046;50.746;7.072;2023-03-29T11:59:15;16.10;99.90
33717;DHT22;20046;50.746;7.072;2023-03-29T12:01:47;16.20;99.90
33717;DHT22;20046;50.746;7.072;2023-03-29T12:04:37;16.40;99.90
33717;DHT22;20046;50.746;7.072;2023-03-29T12:09:34;16.80;99.90
33717;DHT22;20046;50.746;7.072;2023-03-29T12:12:05;17.10;99.90
33717;DHT22;20046;50.746;7.072;2023-03-29T12:14:43;17.30;99.90
33717;DHT22;20046;50.746;7.072;2023-03-29T12:17:11;17.40;99.90
33717;DHT22;20046;50.746;7.072;2023-03-29T12:19:59;17.60;99.90
33717;DHT22;20046;50.746;7.072;2023-03-29T12:22:26;17.70;99.90
33717;DHT22;20046;50.746;7.072;2023-03-29T12:24:52;18.00;99.90
33717;DHT22;20046;50.746;7.072;2023-03-29T12:27:20;18.30;99.90
33717;DHT22;20046;50.746;7.072;2023-03-29T12:42:42;22.70;97.90
33717;DHT22;20046;50.746;7.072;2023-03-29T12:45:25;22.40;97.80
33717;DHT22;20046;50.746;7.072;2023-03-29T12:47:53;22.20;96.40
33717;DHT22;20046;50.746;7.072;2023-03-29T12:52:48;22.30;97.00
33717;DHT22;20046;50.746;7.072;2023-03-29T12:55:21;22.40;94.90
33717;DHT22;20046;50.746;7.072;2023-03-29T13:00:30;22.40;94.80
33717;DHT22;20046;50.746;7.072;2023-03-29T13:03:03;22.00;94.80
33717;DHT22;20046;50.746;7.072;2023-03-29T13:05:31;21.20;95.10
33717;DHT22;20046;50.746;7.072;2023-03-29T13:07:57;20.60;95.80
33717;DHT22;20046;50.746;7.072;2023-03-29T13:10:27;20.50;96.60
33717;DHT22;20046;50.746;7.072;2023-03-29T13:12:53;21.40;95.80
33717;DHT22;20046;50.746;7.072;2023-03-29T13:30:18;25.40;84.50
33717;DHT22;20046;50.746;7.072;2023-03-29T13:37:54;26.00;79.70
33717;DHT22;20046;50.746;7.072;2023-03-29T13:42:56;24.50;81.40
33717;DHT22;20046;50.746;7.072;2023-03-29T13:45:24;24.00;81.70
33717;DHT22;20046;50.746;7.072;2023-03-29T13:47:59;22.70;82.20
33717;DHT22;20046;50.746;7.072;2023-03-29T13:50:33;21.60;84.50
33717;DHT22;20046;50.746;7.072;2023-03-29T13:53:05;20.80;87.10
33717;DHT22;20046;50.746;7.072;2023-03-29T13:55:34;20.20;88.70
33717;DHT22;20046;50.746;7.072;2023-03-29T13:58:03;19.70;90.50
33717;DHT22;20046;50.746;7.072;2023-03-29T14:00:33;19.40;91.10
33717;DHT22;20046;50.746;7.072;2023-03-29T14:03:05;19.30;91.30
33717;DHT22;20046;50.746;7.072;2023-03-29T14:05:35;19.00;91.70
33717;DHT22;20046;50.746;7.072;2023-03-29T14:08:09;18.80;92.30
33717;DHT22;20046;50.746;7.072;2023-03-29T14:10:40;18.80;92.60
33717;DHT22;20046;50.746;7.072;2023-03-29T14:13:09;18.80;92.50
33717;DHT22;20046;50.746;7.072;2023-03-29T14:15:38;18.70;92.70
33717;DHT22;20046;50.746;7.072;2023-03-29T14:18:08;18.50;93.10
33717;DHT22;20046;50.746;7.072;2023-03-29T14:20:34;18.40;93.50
33717;DHT22;20046;50.746;7.072;2023-03-29T14:23:00;18.40;93.60
33717;DHT22;20046;50.746;7.072;2023-03-29T14:25:35;18.50;94.20
33717;DHT22;20046;50.746;7.072;2023-03-29T14:28:01;18.60;93.80
33717;DHT22;20046;50.746;7.072;2023-03-29T14:30:27;18.70;93.60
33717;DHT22;20046;50.746;7.072;2023-03-29T14:32:53;18.70;93.90
33717;DHT22;20046;50.746;7.072;2023-03-29T14:35:18;18.80;94.10
33717;DHT22;20046;50.746;7.072;2023-03-29T14:37:46;18.70;94.20
33717;DHT22;20046;50.746;7.072;2023-03-29T14:40:16;18.60;94.00
33717;DHT22;20046;50.746;7.072;2023-03-29T14:42:43;18.60;94.50
33717;DHT22;20046;50.746;7.072;2023-03-29T14:45:10;18.60;94.90
33717;DHT22;20046;50.746;7.072;2023-03-29T14:47:36;18.60;94.30
33717;DHT22;20046;50.746;7.072;2023-03-29T14:50:04;18.60;94.50
33717;DHT22;20046;50.746;7.072;2023-03-29T14:52:30;18.40;94.80
33717;DHT22;20046;50.746;7.072;2023-03-29T14:54:59;18.30;94.90
33717;DHT22;20046;50.746;7.072;2023-03-29T14:57:26;18.20;95.20
33717;DHT22;20046;50.746;7.072;2023-03-29T15:00:00;18.00;95.30
33717;DHT22;20046;50.746;7.072;2023-03-29T15:04:55;17.80;95.90
33717;DHT22;20046;50.746;7.072;2023-03-29T15:07:22;17.80;96.10
33717;DHT22;20046;50.746;7.072;2023-03-29T15:09:47;17.70;96.30
33717;DHT22;20046;50.746;7.072;2023-03-29T15:12:13;17.60;96.40
33717;DHT22;20046;50.746;7.072;2023-03-29T15:14:39;17.60;96.50
33717;DHT22;20046;50.746;7.072;2023-03-29T15:17:21;17.70;96.80
33717;DHT22;20046;50.746;7.072;2023-03-29T15:19:52;17.80;96.70
33717;DHT22;20046;50.746;7.072;2023-03-29T15:22:21;17.90;96.80
33717;DHT22;20046;50.746;7.072;2023-03-29T15:24:46;17.90;96.90
33717;DHT22;20046;50.746;7.072;2023-03-29T15:27:13;17.80;96.90
33717;DHT22;20046;50.746;7.072;2023-03-29T15:29:40;17.70;97.20
33717;DHT22;20046;50.746;7.072;2023-03-29T15:32:07;17.60;97.50
33717;DHT22;20046;50.746;7.072;2023-03-29T15:34:32;17.60;97.80
33717;DHT22;20046;50.746;7.072;2023-03-29T15:36:58;17.50;98.00
33717;DHT22;20046;50.746;7.072;2023-03-29T15:39:24;17.50;98.40
33717;DHT22;20046;50.746;7.072;2023-03-29T15:41:52;17.50;98.90
33717;DHT22;20046;50.746;7.072;2023-03-29T15:44:32;17.50;99.10
33717;DHT22;20046;50.746;7.072;2023-03-29T15:46:59;17.50;99.70
33717;DHT22;20046;50.746;7.072;2023-03-29T15:49:25;17.40;99.90
33717;DHT22;20046;50.746;7.072;2023-03-29T15:51:51;17.30;99.90
33717;DHT22;20046;50.746;7.072;2023-03-29T15:54:20;17.20;99.90
33717;DHT22;20046;50.746;7.072;2023-03-29T15:56:55;17.10;99.90
33717;DHT22;20046;50.746;7.072;2023-03-29T15:59:24;17.00;99.90
33717;DHT22;20046;50.746;7.072;2023-03-29T16:01:49;17.00;99.90
33717;DHT22;20046;50.746;7.072;2023-03-29T16:04:16;17.00;99.90
33717;DHT22;20046;50.746;7.072;2023-03-29T16:06:42;17.00;99.90
33717;DHT22;20046;50.746;7.072;2023-03-29T16:09:08;17.00;99.90
33717;DHT22;20046;50.746;7.072;2023-03-29T16:11:36;16.90;99.90
33717;DHT22;20046;50.746;7.072;2023-03-29T16:14:01;17.00;99.90
33717;DHT22;20046;50.746;7.072;2023-03-29T16:16:27;17.00;99.90
33717;DHT22;20046;50.746;7.072;2023-03-29T16:18:52;17.00;99.90
33717;DHT22;20046;50.746;7.072;2023-03-29T16:21:18;17.00;99.90
33717;DHT22;20046;50.746;7.072;2023-03-29T16:23:46;17.00;99.90
33717;DHT22;20046;50.746;7.072;2023-03-29T16:26:12;17.10;99.90
33717;DHT22;20046;50.746;7.072;2023-03-29T16:28:38;17.10;99.90
33717;DHT22;20046;50.746;7.072;2023-03-29T16:31:03;17.10;99.90
33717;DHT22;20046;50.746;7.072;2023-03-29T16:33:29;17.10;99.90
33717;DHT22;20046;50.746;7.072;2023-03-29T16:35:54;17.10;99.90
33717;DHT22;20046;50.746;7.072;2023-03-29T16:38:20;17.00;99.90
33717;DHT22;20046;50.746;7.072;2023-03-29T16:40:48;17.00;99.90
33717;DHT22;20046;50.746;7.072;2023-03-29T16:43:13;17.00;99.90
33717;DHT22;20046;50.746;7.072;2023-03-29T16:45:40;16.90;99.90
33717;DHT22;20046;50.746;7.072;2023-03-29T16:48:05;16.80;99.90
33717;DHT22;20046;50.746;7.072;2023-03-29T16:50:31;16.80;99.90
33717;DHT22;20046;50.746;7.072;2023-03-29T16:52:56;16.70;99.90
33717;DHT22;20046;50.746;7.072;2023-03-29T16:55:22;16.70;99.90
33717;DHT22;20046;50.746;7.072;2023-03-29T16:57:47;16.70;99.90
33717;DHT22;20046;50.746;7.072;2023-03-29T17:00:15;16.70;99.90
33717;DHT22;20046;50.746;7.072;2023-03-29T17:02:41;16.70;99.90
33717;DHT22;20046;50.746;7.072;2023-03-29T17:05:07;16.60;99.90
33717;DHT22;20046;50.746;7.072;2023-03-29T17:07:33;16.60;99.90
33717;DHT22;20046;50.746;7.072;2023-03-29T17:09:59;16.60;99.90
33717;DHT22;20046;50.746;7.072;2023-03-29T17:12:24;16.60;99.90
33717;DHT22;20046;50.746;7.072;2023-03-29T17:14:50;16.50;99.90
33717;DHT22;20046;50.746;7.072;2023-03-29T17:17:17;16.50;99.90
33717;DHT22;20046;50.746;7.072;2023-03-29T17:19:42;16.40;99.90
33717;DHT22;20046;50.746;7.072;2023-03-29T17:22:08;16.40;99.90
33717;DHT22;20046;50.746;7.072;2023-03-29T17:24:33;16.40;99.90
33717;DHT22;20046;50.746;7.072;2023-03-29T17:26:59;16.30;99.90
33717;DHT22;20046;50.746;7.072;2023-03-29T17:29:24;16.30;99.90
33717;DHT22;20046;50.746;7.072;2023-03-29T17:31:50;16.20;99.90
33717;DHT22;20046;50.746;7.072;2023-03-29T17:34:16;16.20;99.90
33717;DHT22;20046;50.746;7.072;2023-03-29T17:36:43;16.10;99.90
33717;DHT22;20046;50.746;7.072;2023-03-29T17:39:10;16.00;99.90